createdAt,value
2023-03-05T00:02:59.028Z,2.10
2023-03-05T00:07:12.372Z,1.40
2023-03-05T00:11:25.651Z,1.90
2023-03-05T00:15:42.244Z,2.00
2023-03-05T00:19:53.819Z,2.10
2023-03-05T00:24:08.774Z,2.03
2023-03-05T00:28:20.500Z,2.03
2023-03-05T00:32:32.548Z,2.20
2023-03-05T00:36:47.678Z,1.70
2023-03-05T00:40:59.207Z,1.93
2023-03-05T00:45:11.535Z,1.27
2023-03-05T00:49:23.137Z,2.07
2023-03-05T00:53:35.677Z,1.67
2023-03-05T00:57:47.418Z,1.30
2023-03-05T01:01:59.168Z,1.60
2023-03-05T01:06:13.513Z,1.87
2023-03-05T01:10:26.812Z,1.60
2023-03-05T01:14:38.445Z,1.40
2023-03-05T01:18:50.029Z,1.43
2023-03-05T01:23:01.921Z,1.30
2023-03-05T01:27:13.562Z,1.83
2023-03-05T01:31:25.424Z,1.80
2023-03-05T01:35:37.083Z,1.60
2023-03-05T01:39:48.648Z,1.70
2023-03-05T01:44:00.463Z,1.60
2023-03-05T01:48:12.247Z,1.30
2023-03-05T01:52:25.489Z,1.40
2023-03-05T01:56:39.313Z,1.50
2023-03-05T02:00:53.655Z,1.37
2023-03-05T02:05:10.174Z,1.47
2023-03-05T02:09:23.936Z,1.30
2023-03-05T02:13:38.666Z,1.47
2023-03-05T02:17:50.321Z,1.40
2023-03-05T02:22:01.994Z,1.97
2023-03-05T02:26:13.725Z,1.53
2023-03-05T02:30:25.866Z,1.60
2023-03-05T02:34:37.548Z,1.20
2023-03-05T02:38:49.802Z,1.47
2023-03-05T02:43:01.937Z,1.30
2023-03-05T02:47:14.009Z,1.40
2023-03-05T02:51:26.273Z,1.33
2023-03-05T02:55:39.158Z,1.60
2023-03-05T02:59:51.141Z,1.80
2023-03-05T03:04:03.008Z,1.73
2023-03-05T03:08:15.340Z,1.40
2023-03-05T03:12:26.942Z,1.70
2023-03-05T03:16:38.527Z,1.83
2023-03-05T03:20:50.187Z,1.60
2023-03-05T03:25:02.100Z,1.97
2023-03-05T03:29:13.789Z,1.97
2023-03-05T03:33:25.454Z,1.93
2023-03-05T03:37:37.318Z,2.03
2023-03-05T03:41:51.064Z,2.13
2023-03-05T03:46:09.424Z,1.90
2023-03-05T03:50:21.681Z,2.27
2023-03-05T03:54:33.632Z,1.73
2023-03-05T03:58:45.282Z,2.00
2023-03-05T04:02:56.862Z,2.20
2023-03-05T04:07:08.529Z,1.93
2023-03-05T04:11:20.502Z,1.97
2023-03-05T04:15:33.010Z,2.00
2023-03-05T04:19:44.778Z,1.70
2023-03-05T04:23:56.348Z,1.80
2023-03-05T04:28:07.905Z,1.90
2023-03-05T04:32:23.309Z,2.00
2023-03-05T04:36:34.956Z,1.90
2023-03-05T04:40:47.247Z,2.23
2023-03-05T04:44:58.859Z,1.77
2023-03-05T04:49:10.432Z,1.77
2023-03-05T04:53:22.020Z,1.73
2023-03-05T04:57:33.653Z,1.73
2023-03-05T05:01:45.397Z,1.30
2023-03-05T05:05:59.290Z,1.67
2023-03-05T05:10:11.915Z,1.50
2023-03-05T05:14:23.478Z,1.60
2023-03-05T05:18:35.533Z,1.10
2023-03-05T05:22:47.191Z,1.73
2023-03-05T05:26:58.743Z,2.50
2023-03-05T05:31:13.724Z,1.30
2023-03-05T05:35:25.454Z,2.50
2023-03-05T05:39:37.605Z,2.80
2023-03-05T05:43:49.596Z,1.97
2023-03-05T05:48:01.584Z,3.00
2023-03-05T05:52:13.774Z,1.80
2023-03-05T05:56:25.609Z,15.77
2023-03-05T06:00:37.184Z,9.90
2023-03-05T06:04:48.830Z,5.60
2023-03-05T06:09:00.916Z,2.90
2023-03-05T06:13:12.546Z,1.60
2023-03-05T06:17:30.292Z,2.13
2023-03-05T06:21:46.002Z,2.33
2023-03-05T06:26:02.912Z,3.80
2023-03-05T06:30:14.651Z,3.03
2023-03-05T06:34:26.234Z,2.60
2023-03-05T06:38:38.378Z,2.53
2023-03-05T06:42:50.009Z,2.43
2023-03-05T06:47:01.568Z,1.77
2023-03-05T06:51:21.971Z,2.40
2023-03-05T06:55:39.722Z,2.17
2023-03-05T06:59:51.365Z,1.80
2023-03-05T07:04:04.012Z,1.70
2023-03-05T07:08:15.884Z,1.87
2023-03-05T07:12:27.486Z,1.53
2023-03-05T07:16:39.158Z,1.90
2023-03-05T07:20:50.833Z,1.47
2023-03-05T07:25:02.405Z,1.60
2023-03-05T07:29:13.964Z,1.70
2023-03-05T07:33:26.593Z,1.87
2023-03-05T07:37:38.506Z,2.30
2023-03-05T07:41:51.565Z,1.80
2023-03-05T07:46:14.937Z,1.57
2023-03-05T07:50:26.666Z,1.70
2023-03-05T07:54:39.656Z,1.53
2023-03-05T07:58:51.360Z,1.77
2023-03-05T08:03:03.016Z,2.17
2023-03-05T08:07:16.362Z,4.90
2023-03-05T08:11:28.824Z,1.90
2023-03-05T08:15:40.641Z,1.80
2023-03-05T08:19:53.781Z,1.37
2023-03-05T08:24:08.149Z,1.90
2023-03-05T08:28:19.783Z,1.80
2023-03-05T08:32:31.465Z,1.90
2023-03-05T08:36:43.156Z,1.87
2023-03-05T08:40:54.745Z,1.33
2023-03-05T08:45:06.989Z,1.43
2023-03-05T08:49:18.576Z,1.50
2023-03-05T08:53:30.412Z,2.03
2023-03-05T08:57:42.320Z,1.70
2023-03-05T09:01:54.024Z,1.40
2023-03-05T09:06:08.659Z,1.00
2023-03-05T09:10:20.419Z,1.30
2023-03-05T09:14:32.080Z,1.43
2023-03-05T09:18:44.070Z,1.10
2023-03-05T09:22:55.640Z,1.27
2023-03-05T09:27:07.336Z,1.57
2023-03-05T09:31:19.023Z,1.43
2023-03-05T09:35:30.785Z,1.57
2023-03-05T09:39:42.390Z,1.57
2023-03-05T09:44:08.883Z,1.57
2023-03-05T09:48:39.908Z,1.70
2023-03-05T09:52:55.518Z,1.70
2023-03-05T09:57:15.322Z,1.20
2023-03-05T10:01:42.076Z,1.47
2023-03-05T10:06:11.279Z,1.40
2023-03-05T10:10:31.233Z,2.07
2023-03-05T10:14:42.978Z,1.37
2023-03-05T10:19:41.115Z,1.10
2023-03-05T10:23:56.856Z,3.00
2023-03-05T10:28:35.712Z,4.50
2023-03-05T10:33:08.058Z,1.50
2023-03-05T10:37:47.144Z,12.37
2023-03-05T10:42:37.655Z,24.10
2023-03-05T10:46:50.100Z,5.90
2023-03-05T10:51:28.018Z,2.07
2023-03-05T10:55:40.385Z,1.90
2023-03-05T11:00:01.062Z,5.60
2023-03-05T11:04:32.192Z,1.43
2023-03-05T11:08:43.887Z,1.27
2023-03-05T11:12:57.952Z,1.10
2023-03-05T11:17:31.738Z,1.10
2023-03-05T11:21:44.642Z,1.60
2023-03-05T11:26:22.622Z,1.08
2023-03-05T11:30:37.585Z,1.10
2023-03-05T11:34:49.507Z,0.85
2023-03-05T11:39:10.304Z,1.38
2023-03-05T11:43:24.670Z,1.13
2023-03-05T11:47:49.878Z,1.10
2023-03-05T11:52:23.736Z,1.20
2023-03-05T11:56:37.382Z,1.20
2023-03-05T12:00:49.403Z,1.05
2023-03-05T12:05:04.077Z,1.77
2023-03-05T12:10:18.907Z,1.60
2023-03-05T12:14:44.866Z,1.30
2023-03-05T12:19:22.774Z,3.58
2023-03-05T12:23:50.935Z,1.30
2023-03-05T12:28:03.102Z,1.20
2023-03-05T12:32:29.006Z,1.00
2023-03-05T12:36:40.874Z,0.93
2023-03-05T12:40:52.528Z,1.30
2023-03-05T12:45:10.144Z,1.20
2023-03-05T12:49:27.116Z,1.70
2023-03-05T12:53:38.746Z,4.13
2023-03-05T12:57:58.631Z,3.10
2023-03-05T13:02:24.172Z,34.35
2023-03-05T13:06:36.775Z,34.08
2023-03-05T13:11:21.390Z,15.32
2023-03-05T13:15:33.613Z,11.85
2023-03-05T13:19:45.303Z,7.03
2023-03-05T13:23:59.473Z,2.00
2023-03-05T13:28:16.776Z,1.30
2023-03-05T13:32:31.512Z,0.93
2023-03-05T13:37:17.131Z,1.20
2023-03-05T13:41:29.926Z,1.00
2023-03-05T13:45:44.075Z,0.97
2023-03-05T13:50:00.938Z,0.70
2023-03-05T13:54:17.724Z,0.90
2023-03-05T13:58:49.230Z,0.90
2023-03-05T14:03:27.955Z,0.50
2023-03-05T14:07:41.512Z,0.90
2023-03-05T14:12:21.187Z,0.77
2023-03-05T14:16:33.739Z,0.80
2023-03-05T14:21:08.807Z,0.80
2023-03-05T14:25:39.454Z,0.90
2023-03-05T14:29:51.370Z,1.20
2023-03-05T14:34:07.936Z,0.90
2023-03-05T14:38:34.107Z,0.80
2023-03-05T14:43:00.840Z,1.23
2023-03-05T14:47:12.446Z,1.10
2023-03-05T14:51:25.391Z,0.90
2023-03-05T14:55:38.380Z,0.80
2023-03-05T14:59:50.342Z,1.00
2023-03-05T15:04:01.994Z,0.80
2023-03-05T15:08:20.356Z,1.20
2023-03-05T15:12:32.037Z,3.03
2023-03-05T15:16:45.616Z,4.57
2023-03-05T15:20:57.527Z,1.63
2023-03-05T15:25:09.749Z,2.50
2023-03-05T15:29:21.347Z,1.97
2023-03-05T15:33:33.702Z,1.67
2023-03-05T15:37:45.320Z,1.33
2023-03-05T15:41:58.477Z,1.00
2023-03-05T15:46:10.220Z,1.80
2023-03-05T15:50:22.136Z,2.63
2023-03-05T15:54:35.418Z,1.63
2023-03-05T15:58:50.704Z,1.60
2023-03-05T16:03:02.720Z,2.40
2023-03-05T16:07:15.554Z,2.17
2023-03-05T16:11:28.041Z,1.63
2023-03-05T16:15:41.748Z,2.30
2023-03-05T16:19:55.710Z,1.67
2023-03-05T16:24:07.534Z,1.70
2023-03-05T16:28:19.439Z,2.43
2023-03-05T16:32:31.129Z,2.37
2023-03-05T16:36:48.873Z,2.00
2023-03-05T16:41:08.191Z,2.00
2023-03-05T16:45:20.597Z,2.00
2023-03-05T16:49:33.081Z,2.10
2023-03-05T16:53:44.749Z,2.10
2023-03-05T16:57:56.333Z,1.83
2023-03-05T17:02:08.061Z,2.50
2023-03-05T17:06:22.667Z,3.37
2023-03-05T17:10:34.361Z,3.73
2023-03-05T17:14:46.303Z,2.60
2023-03-05T17:18:57.920Z,2.90
2023-03-05T17:23:09.564Z,2.37
2023-03-05T17:27:22.709Z,2.10
2023-03-05T17:31:34.817Z,3.17
2023-03-05T17:35:50.454Z,2.90
2023-03-05T17:40:03.947Z,4.13
2023-03-05T17:44:15.804Z,5.93
2023-03-05T17:48:28.382Z,9.50
2023-03-05T17:52:41.256Z,11.07
2023-03-05T17:56:56.731Z,4.97
2023-03-05T18:01:08.978Z,5.43
2023-03-05T18:05:22.787Z,7.20
2023-03-05T18:09:34.389Z,11.73
2023-03-05T18:13:45.998Z,6.23
2023-03-05T18:18:03.531Z,5.37
2023-03-05T18:22:15.265Z,7.07
2023-03-05T18:26:26.896Z,13.17
2023-03-05T18:30:40.669Z,8.40
2023-03-05T18:34:52.348Z,5.13
2023-03-05T18:39:04.229Z,6.27
2023-03-05T18:43:17.206Z,4.20
2023-03-05T18:47:29.431Z,3.13
2023-03-05T18:51:42.133Z,3.10
2023-03-05T18:55:53.750Z,3.27
2023-03-05T19:00:06.049Z,3.43
2023-03-05T19:04:17.801Z,2.80
2023-03-05T19:08:29.508Z,4.73
2023-03-05T19:12:49.213Z,3.00
2023-03-05T19:17:00.753Z,3.37
2023-03-05T19:21:12.354Z,2.53
2023-03-05T19:25:23.960Z,3.33
2023-03-05T19:29:37.720Z,3.20
2023-03-05T19:33:49.485Z,3.03
2023-03-05T19:38:01.116Z,3.67
2023-03-05T19:42:12.882Z,4.20
2023-03-05T19:46:24.634Z,5.00
2023-03-05T19:50:36.283Z,3.50
2023-03-05T19:54:47.850Z,4.97
2023-03-05T19:58:59.539Z,4.90
2023-03-05T20:03:11.351Z,3.60
2023-03-05T20:07:22.948Z,3.07
2023-03-05T20:11:34.607Z,2.80
2023-03-05T20:15:46.291Z,2.47
2023-03-05T20:20:00.143Z,2.63
2023-03-05T20:24:14.801Z,2.23
2023-03-05T20:28:26.480Z,2.23
2023-03-05T20:32:38.210Z,2.57
2023-03-05T20:36:49.840Z,2.40
2023-03-05T20:41:10.391Z,2.60
2023-03-05T20:45:23.094Z,2.80
2023-03-05T20:49:34.727Z,2.10
2023-03-05T20:53:46.355Z,3.13
2023-03-05T20:57:57.985Z,2.60
2023-03-05T21:02:10.181Z,2.90
2023-03-05T21:06:21.846Z,2.37
2023-03-05T21:10:33.552Z,2.60
2023-03-05T21:14:45.179Z,2.97
2023-03-05T21:18:57.407Z,2.90
2023-03-05T21:23:09.072Z,2.90
2023-03-05T21:27:20.715Z,3.80
2023-03-05T21:31:32.460Z,2.90
2023-03-05T21:35:44.737Z,2.87
2023-03-05T21:39:56.342Z,3.13
2023-03-05T21:44:08.730Z,2.40
2023-03-05T21:48:22.475Z,2.50
2023-03-05T21:52:34.512Z,2.80
2023-03-05T21:56:46.641Z,1.90
2023-03-05T22:00:58.879Z,2.03
2023-03-05T22:05:13.235Z,2.30
2023-03-05T22:09:24.935Z,2.03
2023-03-05T22:13:37.486Z,1.87
2023-03-05T22:17:49.313Z,1.80
2023-03-05T22:22:01.591Z,2.00
2023-03-05T22:26:13.580Z,2.40
2023-03-05T22:30:25.424Z,1.80
2023-03-05T22:34:37.562Z,1.80
2023-03-05T22:38:49.500Z,2.07
2023-03-05T22:43:01.206Z,1.80
2023-03-05T22:47:13.081Z,1.80
2023-03-05T22:51:24.836Z,2.33
2023-03-05T22:55:41.869Z,2.23
2023-03-05T22:59:53.636Z,1.93
2023-03-05T23:04:18.265Z,2.10
2023-03-05T23:08:30.077Z,2.20
2023-03-05T23:12:49.406Z,2.20
2023-03-05T23:17:01.084Z,1.90
2023-03-05T23:21:12.772Z,2.27
2023-03-05T23:25:27.424Z,2.03
2023-03-05T23:29:58.234Z,2.13
2023-03-05T23:34:09.870Z,2.00
2023-03-05T23:38:21.941Z,1.80
2023-03-05T23:42:33.714Z,2.37
2023-03-05T23:46:45.324Z,2.20
2023-03-05T23:50:57.012Z,2.30
2023-03-05T23:55:09.876Z,2.00
2023-03-05T23:59:21.538Z,2.00
